Terminal Aerodrome Forecast
Issued by NWS

Home | Current Version | Previous Version | Text Only | Print | Product List | Glossary On
Versions: 1 2 3 4 5 6 7 8 9 10 11 12 13 14 15 16 17 18 19 20 21
000
FTUS43 KAPX 211700
TAFPLN
TAF
KPLN 211739Z 2118/2218 VRB03KT P6SM SCT035 BKN250
     FM220500 00000KT P6SM SCT035 BKN150
     FM220800 00000KT 5SM BR BKN022
     FM221000 VRB02KT 5SM BR OVC012
     FM221300 11005KT P6SM OVC018=

USA.gov is the U.S. government's official web portal to all federal, state and local government web resources and services.